sensor_id;sensor_type;location;lat;lon;timestamp;P1;durP1;ratioP1;P2;durP2;ratioP2
18228;SDS011;9239;50.932;3.142;2023-05-10T00:02:08;15.50;;;11.55;;
18228;SDS011;9239;50.932;3.142;2023-05-10T00:04:35;19.52;;;11.80;;
18228;SDS011;9239;50.932;3.142;2023-05-10T00:07:02;15.38;;;12.30;;
18228;SDS011;9239;50.932;3.142;2023-05-10T00:09:28;15.88;;;12.20;;
18228;SDS011;9239;50.932;3.142;2023-05-10T00:11:55;15.00;;;12.98;;
18228;SDS011;9239;50.932;3.142;2023-05-10T00:14:24;16.27;;;12.70;;
18228;SDS011;9239;50.932;3.142;2023-05-10T00:16:52;15.85;;;12.43;;
18228;SDS011;9239;50.932;3.142;2023-05-10T00:19:19;18.92;;;14.43;;
18228;SDS011;9239;50.932;3.142;2023-05-10T00:21:46;15.55;;;12.32;;
18228;SDS011;9239;50.932;3.142;2023-05-10T00:24:13;19.75;;;14.57;;
18228;SDS011;9239;50.932;3.142;2023-05-10T00:26:39;20.92;;;14.85;;
18228;SDS011;9239;50.932;3.142;2023-05-10T00:29:08;18.58;;;14.63;;
18228;SDS011;9239;50.932;3.142;2023-05-10T00:31:36;19.07;;;15.70;;
18228;SDS011;9239;50.932;3.142;2023-05-10T00:34:03;20.98;;;15.07;;
18228;SDS011;9239;50.932;3.142;2023-05-10T00:36:30;21.77;;;14.68;;
18228;SDS011;9239;50.932;3.142;2023-05-10T00:38:57;19.05;;;13.70;;
18228;SDS011;9239;50.932;3.142;2023-05-10T00:41:24;19.20;;;14.88;;
18228;SDS011;9239;50.932;3.142;2023-05-10T00:43:51;20.08;;;14.45;;
18228;SDS011;9239;50.932;3.142;2023-05-10T00:46:18;19.40;;;14.20;;
18228;SDS011;9239;50.932;3.142;2023-05-10T00:48:47;20.65;;;14.20;;
18228;SDS011;9239;50.932;3.142;2023-05-10T00:51:15;18.20;;;13.80;;
18228;SDS011;9239;50.932;3.142;2023-05-10T00:53:42;19.00;;;13.85;;
18228;SDS011;9239;50.932;3.142;2023-05-10T00:56:11;20.77;;;14.80;;
18228;SDS011;9239;50.932;3.142;2023-05-10T00:58:39;18.92;;;13.57;;
18228;SDS011;9239;50.932;3.142;2023-05-10T01:01:06;21.63;;;13.63;;
18228;SDS011;9239;50.932;3.142;2023-05-10T01:03:34;22.02;;;14.00;;
18228;SDS011;9239;50.932;3.142;2023-05-10T01:06:03;20.15;;;14.93;;
18228;SDS011;9239;50.932;3.142;2023-05-10T01:08:31;17.50;;;12.90;;
18228;SDS011;9239;50.932;3.142;2023-05-10T01:10:58;24.38;;;14.00;;
18228;SDS011;9239;50.932;3.142;2023-05-10T01:13:29;16.02;;;12.98;;
18228;SDS011;9239;50.932;3.142;2023-05-10T01:15:58;18.40;;;13.57;;
18228;SDS011;9239;50.932;3.142;2023-05-10T01:18:27;16.90;;;13.50;;
18228;SDS011;9239;50.932;3.142;2023-05-10T01:20:57;16.65;;;13.40;;
18228;SDS011;9239;50.932;3.142;2023-05-10T01:23:34;19.90;;;14.73;;
18228;SDS011;9239;50.932;3.142;2023-05-10T01:29:12;22.77;;;15.88;;
18228;SDS011;9239;50.932;3.142;2023-05-10T01:34:48;18.73;;;15.27;;
18228;SDS011;9239;50.932;3.142;2023-05-10T01:37:25;21.02;;;16.15;;
18228;SDS011;9239;50.932;3.142;2023-05-10T01:39:59;22.10;;;15.67;;
18228;SDS011;9239;50.932;3.142;2023-05-10T01:42:31;21.17;;;16.07;;
18228;SDS011;9239;50.932;3.142;2023-05-10T01:45:07;20.45;;;16.73;;
18228;SDS011;9239;50.932;3.142;2023-05-10T01:47:46;21.17;;;16.23;;
18228;SDS011;9239;50.932;3.142;2023-05-10T01:50:19;24.63;;;18.80;;
18228;SDS011;9239;50.932;3.142;2023-05-10T01:52:53;25.90;;;17.75;;
18228;SDS011;9239;50.932;3.142;2023-05-10T01:55:23;23.47;;;17.60;;
18228;SDS011;9239;50.932;3.142;2023-05-10T01:57:52;21.87;;;17.73;;
18228;SDS011;9239;50.932;3.142;2023-05-10T02:00:25;22.00;;;17.00;;
18228;SDS011;9239;50.932;3.142;2023-05-10T02:02:54;24.20;;;18.43;;
18228;SDS011;9239;50.932;3.142;2023-05-10T02:05:22;25.33;;;18.80;;
18228;SDS011;9239;50.932;3.142;2023-05-10T02:07:50;25.67;;;19.43;;
18228;SDS011;9239;50.932;3.142;2023-05-10T02:10:18;24.77;;;18.27;;
18228;SDS011;9239;50.932;3.142;2023-05-10T02:12:47;25.40;;;17.83;;
18228;SDS011;9239;50.932;3.142;2023-05-10T02:15:17;25.90;;;18.60;;
18228;SDS011;9239;50.932;3.142;2023-05-10T02:17:49;23.98;;;18.60;;
18228;SDS011;9239;50.932;3.142;2023-05-10T02:20:20;25.45;;;18.77;;
18228;SDS011;9239;50.932;3.142;2023-05-10T02:22:48;26.48;;;17.77;;
18228;SDS011;9239;50.932;3.142;2023-05-10T02:25:17;21.70;;;17.53;;
18228;SDS011;9239;50.932;3.142;2023-05-10T02:27:45;23.80;;;17.60;;
18228;SDS011;9239;50.932;3.142;2023-05-10T02:30:14;21.97;;;16.93;;
18228;SDS011;9239;50.932;3.142;2023-05-10T02:32:41;23.40;;;17.03;;
18228;SDS011;9239;50.932;3.142;2023-05-10T02:35:10;25.87;;;18.53;;
18228;SDS011;9239;50.932;3.142;2023-05-10T02:37:39;22.07;;;16.03;;
18228;SDS011;9239;50.932;3.142;2023-05-10T02:40:07;24.40;;;17.87;;
18228;SDS011;9239;50.932;3.142;2023-05-10T02:42:37;23.97;;;16.57;;
18228;SDS011;9239;50.932;3.142;2023-05-10T02:45:07;25.10;;;18.43;;
18228;SDS011;9239;50.932;3.142;2023-05-10T02:47:38;25.10;;;18.00;;
18228;SDS011;9239;50.932;3.142;2023-05-10T02:50:05;26.93;;;18.67;;
18228;SDS011;9239;50.932;3.142;2023-05-10T02:52:36;27.60;;;20.30;;
18228;SDS011;9239;50.932;3.142;2023-05-10T02:55:09;24.93;;;19.87;;
18228;SDS011;9239;50.932;3.142;2023-05-10T02:57:40;30.00;;;20.20;;
18228;SDS011;9239;50.932;3.142;2023-05-10T03:00:12;32.93;;;21.20;;
18228;SDS011;9239;50.932;3.142;2023-05-10T03:02:39;31.53;;;19.93;;
18228;SDS011;9239;50.932;3.142;2023-05-10T03:05:07;30.03;;;19.27;;
18228;SDS011;9239;50.932;3.142;2023-05-10T03:07:34;31.10;;;19.80;;
18228;SDS011;9239;50.932;3.142;2023-05-10T03:10:04;28.80;;;20.00;;
18228;SDS011;9239;50.932;3.142;2023-05-10T03:12:35;29.37;;;19.10;;
18228;SDS011;9239;50.932;3.142;2023-05-10T03:15:15;27.43;;;20.47;;
18228;SDS011;9239;50.932;3.142;2023-05-10T03:17:51;26.40;;;19.77;;
18228;SDS011;9239;50.932;3.142;2023-05-10T03:20:22;29.20;;;20.97;;
18228;SDS011;9239;50.932;3.142;2023-05-10T03:22:53;26.43;;;18.80;;
18228;SDS011;9239;50.932;3.142;2023-05-10T03:25:23;29.40;;;19.10;;
18228;SDS011;9239;50.932;3.142;2023-05-10T03:27:50;27.97;;;19.13;;
18228;SDS011;9239;50.932;3.142;2023-05-10T03:30:18;32.30;;;20.20;;
18228;SDS011;9239;50.932;3.142;2023-05-10T03:32:46;26.93;;;18.83;;
18228;SDS011;9239;50.932;3.142;2023-05-10T03:35:13;27.93;;;18.97;;
18228;SDS011;9239;50.932;3.142;2023-05-10T03:37:40;32.63;;;20.23;;
18228;SDS011;9239;50.932;3.142;2023-05-10T03:40:07;31.63;;;19.57;;
18228;SDS011;9239;50.932;3.142;2023-05-10T03:42:37;32.73;;;20.93;;
18228;SDS011;9239;50.932;3.142;2023-05-10T03:45:04;32.53;;;21.70;;
18228;SDS011;9239;50.932;3.142;2023-05-10T03:47:32;27.20;;;19.37;;
18228;SDS011;9239;50.932;3.142;2023-05-10T03:49:59;30.33;;;19.67;;
18228;SDS011;9239;50.932;3.142;2023-05-10T03:52:26;29.73;;;20.20;;
18228;SDS011;9239;50.932;3.142;2023-05-10T03:54:53;33.07;;;20.17;;
18228;SDS011;9239;50.932;3.142;2023-05-10T03:57:20;33.93;;;20.83;;
18228;SDS011;9239;50.932;3.142;2023-05-10T03:59:49;34.83;;;21.73;;
18228;SDS011;9239;50.932;3.142;2023-05-10T04:02:16;34.30;;;21.33;;
18228;SDS011;9239;50.932;3.142;2023-05-10T04:04:43;38.37;;;22.00;;
18228;SDS011;9239;50.932;3.142;2023-05-10T04:07:10;38.30;;;22.17;;
18228;SDS011;9239;50.932;3.142;2023-05-10T04:09:37;36.83;;;22.57;;
18228;SDS011;9239;50.932;3.142;2023-05-10T04:12:04;35.50;;;22.80;;
18228;SDS011;9239;50.932;3.142;2023-05-10T04:14:31;34.80;;;21.47;;
18228;SDS011;9239;50.932;3.142;2023-05-10T04:16:59;38.63;;;24.13;;
18228;SDS011;9239;50.932;3.142;2023-05-10T04:19:28;38.47;;;23.03;;
18228;SDS011;9239;50.932;3.142;2023-05-10T04:21:55;38.93;;;23.93;;
18228;SDS011;9239;50.932;3.142;2023-05-10T04:24:22;36.10;;;24.20;;
18228;SDS011;9239;50.932;3.142;2023-05-10T04:26:49;34.87;;;23.13;;
18228;SDS011;9239;50.932;3.142;2023-05-10T04:29:17;37.57;;;21.70;;
18228;SDS011;9239;50.932;3.142;2023-05-10T04:31:43;37.77;;;23.10;;
18228;SDS011;9239;50.932;3.142;2023-05-10T04:34:12;41.97;;;22.83;;
18228;SDS011;9239;50.932;3.142;2023-05-10T04:36:39;41.10;;;24.87;;
18228;SDS011;9239;50.932;3.142;2023-05-10T04:39:06;36.43;;;22.77;;
18228;SDS011;9239;50.932;3.142;2023-05-10T04:41:34;39.20;;;23.17;;
18228;SDS011;9239;50.932;3.142;2023-05-10T04:44:01;34.70;;;21.93;;
18228;SDS011;9239;50.932;3.142;2023-05-10T04:46:28;36.03;;;21.90;;
18228;SDS011;9239;50.932;3.142;2023-05-10T04:48:55;34.63;;;22.00;;
18228;SDS011;9239;50.932;3.142;2023-05-10T04:51:24;36.37;;;21.47;;
18228;SDS011;9239;50.932;3.142;2023-05-10T04:53:51;32.63;;;20.50;;
18228;SDS011;9239;50.932;3.142;2023-05-10T04:56:18;37.13;;;21.33;;
18228;SDS011;9239;50.932;3.142;2023-05-10T04:58:45;34.20;;;21.90;;
18228;SDS011;9239;50.932;3.142;2023-05-10T05:01:12;30.50;;;20.07;;
18228;SDS011;9239;50.932;3.142;2023-05-10T05:03:39;32.00;;;19.47;;
18228;SDS011;9239;50.932;3.142;2023-05-10T05:06:06;30.80;;;20.47;;
18228;SDS011;9239;50.932;3.142;2023-05-10T05:08:34;30.00;;;19.83;;
18228;SDS011;9239;50.932;3.142;2023-05-10T05:11:01;32.80;;;20.10;;
18228;SDS011;9239;50.932;3.142;2023-05-10T05:13:28;29.13;;;18.97;;
18228;SDS011;9239;50.932;3.142;2023-05-10T05:15:55;25.77;;;18.00;;
18228;SDS011;9239;50.932;3.142;2023-05-10T05:18:22;24.42;;;15.85;;
18228;SDS011;9239;50.932;3.142;2023-05-10T05:20:49;26.63;;;17.30;;
18228;SDS011;9239;50.932;3.142;2023-05-10T05:23:16;24.30;;;16.55;;
18228;SDS011;9239;50.932;3.142;2023-05-10T05:25:47;24.98;;;16.17;;
18228;SDS011;9239;50.932;3.142;2023-05-10T05:28:14;24.98;;;16.40;;
18228;SDS011;9239;50.932;3.142;2023-05-10T05:30:40;26.33;;;17.10;;
18228;SDS011;9239;50.932;3.142;2023-05-10T05:33:07;24.80;;;16.50;;
18228;SDS011;9239;50.932;3.142;2023-05-10T05:35:34;24.83;;;17.05;;
18228;SDS011;9239;50.932;3.142;2023-05-10T05:38:01;25.98;;;17.70;;
18228;SDS011;9239;50.932;3.142;2023-05-10T05:40:28;26.00;;;18.75;;
18228;SDS011;9239;50.932;3.142;2023-05-10T05:42:57;24.63;;;17.85;;
18228;SDS011;9239;50.932;3.142;2023-05-10T05:45:24;26.40;;;17.92;;
18228;SDS011;9239;50.932;3.142;2023-05-10T05:47:51;26.43;;;18.10;;
18228;SDS011;9239;50.932;3.142;2023-05-10T05:50:18;26.73;;;17.65;;
18228;SDS011;9239;50.932;3.142;2023-05-10T05:52:45;26.58;;;17.50;;
18228;SDS011;9239;50.932;3.142;2023-05-10T05:55:12;25.85;;;17.55;;
18228;SDS011;9239;50.932;3.142;2023-05-10T05:57:39;23.85;;;18.40;;
18228;SDS011;9239;50.932;3.142;2023-05-10T06:00:08;24.45;;;17.38;;
18228;SDS011;9239;50.932;3.142;2023-05-10T06:02:35;27.08;;;18.00;;
18228;SDS011;9239;50.932;3.142;2023-05-10T06:05:02;27.40;;;18.67;;
18228;SDS011;9239;50.932;3.142;2023-05-10T06:07:29;24.00;;;17.33;;
18228;SDS011;9239;50.932;3.142;2023-05-10T06:09:56;22.33;;;17.15;;
18228;SDS011;9239;50.932;3.142;2023-05-10T06:12:23;23.95;;;16.38;;
18228;SDS011;9239;50.932;3.142;2023-05-10T06:14:50;27.70;;;18.58;;
18228;SDS011;9239;50.932;3.142;2023-05-10T06:17:19;29.70;;;19.30;;
18228;SDS011;9239;50.932;3.142;2023-05-10T06:19:46;20.98;;;17.88;;
18228;SDS011;9239;50.932;3.142;2023-05-10T06:22:13;29.48;;;19.38;;
18228;SDS011;9239;50.932;3.142;2023-05-10T06:24:40;26.67;;;19.98;;
18228;SDS011;9239;50.932;3.142;2023-05-10T06:27:08;26.90;;;18.77;;
18228;SDS011;9239;50.932;3.142;2023-05-10T06:29:35;28.15;;;19.55;;
18228;SDS011;9239;50.932;3.142;2023-05-10T06:32:02;20.63;;;16.85;;
18228;SDS011;9239;50.932;3.142;2023-05-10T06:34:31;22.95;;;17.80;;
18228;SDS011;9239;50.932;3.142;2023-05-10T06:36:58;23.00;;;16.92;;
18228;SDS011;9239;50.932;3.142;2023-05-10T06:39:24;29.02;;;19.80;;
18228;SDS011;9239;50.932;3.142;2023-05-10T06:41:51;25.38;;;18.70;;
18228;SDS011;9239;50.932;3.142;2023-05-10T06:44:19;23.42;;;17.90;;
18228;SDS011;9239;50.932;3.142;2023-05-10T06:46:46;24.30;;;19.55;;
18228;SDS011;9239;50.932;3.142;2023-05-10T06:49:13;27.73;;;19.80;;
18228;SDS011;9239;50.932;3.142;2023-05-10T06:51:41;26.73;;;19.27;;
18228;SDS011;9239;50.932;3.142;2023-05-10T06:54:08;25.90;;;19.05;;
18228;SDS011;9239;50.932;3.142;2023-05-10T06:56:35;22.02;;;18.98;;
18228;SDS011;9239;50.932;3.142;2023-05-10T06:59:02;25.30;;;19.17;;
18228;SDS011;9239;50.932;3.142;2023-05-10T07:01:29;20.48;;;17.17;;
18228;SDS011;9239;50.932;3.142;2023-05-10T07:03:56;22.67;;;17.88;;
18228;SDS011;9239;50.932;3.142;2023-05-10T07:06:23;25.02;;;18.48;;
18228;SDS011;9239;50.932;3.142;2023-05-10T07:08:51;24.40;;;19.52;;
18228;SDS011;9239;50.932;3.142;2023-05-10T07:11:18;22.20;;;17.48;;
18228;SDS011;9239;50.932;3.142;2023-05-10T07:13:45;26.70;;;20.27;;
18228;SDS011;9239;50.932;3.142;2023-05-10T07:16:12;25.05;;;19.90;;
18228;SDS011;9239;50.932;3.142;2023-05-10T07:18:39;25.30;;;19.40;;
18228;SDS011;9239;50.932;3.142;2023-05-10T07:21:06;24.25;;;19.42;;
18228;SDS011;9239;50.932;3.142;2023-05-10T07:23:33;24.80;;;19.90;;
18228;SDS011;9239;50.932;3.142;2023-05-10T07:26:02;26.20;;;19.60;;
18228;SDS011;9239;50.932;3.142;2023-05-10T07:28:29;24.67;;;20.05;;
18228;SDS011;9239;50.932;3.142;2023-05-10T07:30:56;23.77;;;18.98;;
18228;SDS011;9239;50.932;3.142;2023-05-10T07:33:23;23.98;;;19.65;;
18228;SDS011;9239;50.932;3.142;2023-05-10T07:35:50;26.30;;;19.38;;
18228;SDS011;9239;50.932;3.142;2023-05-10T07:38:17;28.75;;;20.52;;
18228;SDS011;9239;50.932;3.142;2023-05-10T07:40:44;25.42;;;19.83;;
18228;SDS011;9239;50.932;3.142;2023-05-10T07:43:12;24.90;;;19.77;;
18228;SDS011;9239;50.932;3.142;2023-05-10T07:45:39;25.48;;;20.75;;
18228;SDS011;9239;50.932;3.142;2023-05-10T07:48:06;26.67;;;21.42;;
18228;SDS011;9239;50.932;3.142;2023-05-10T07:50:33;23.70;;;19.98;;
18228;SDS011;9239;50.932;3.142;2023-05-10T07:53:00;22.02;;;19.55;;
18228;SDS011;9239;50.932;3.142;2023-05-10T07:55:27;21.52;;;19.17;;
18228;SDS011;9239;50.932;3.142;2023-05-10T07:57:55;21.25;;;17.40;;
18228;SDS011;9239;50.932;3.142;2023-05-10T08:00:23;22.60;;;19.00;;
18228;SDS011;9239;50.932;3.142;2023-05-10T08:02:50;21.23;;;17.95;;
18228;SDS011;9239;50.932;3.142;2023-05-10T08:05:17;24.55;;;18.17;;
18228;SDS011;9239;50.932;3.142;2023-05-10T08:07:44;19.75;;;17.65;;
18228;SDS011;9239;50.932;3.142;2023-05-10T08:10:11;22.70;;;17.63;;
18228;SDS011;9239;50.932;3.142;2023-05-10T08:12:38;24.08;;;19.15;;
18228;SDS011;9239;50.932;3.142;2023-05-10T08:15:06;24.15;;;19.55;;
18228;SDS011;9239;50.932;3.142;2023-05-10T08:17:35;22.17;;;19.55;;
18228;SDS011;9239;50.932;3.142;2023-05-10T08:20:02;22.83;;;19.05;;
18228;SDS011;9239;50.932;3.142;2023-05-10T08:22:30;22.75;;;18.08;;
18228;SDS011;9239;50.932;3.142;2023-05-10T08:24:57;19.02;;;17.02;;
18228;SDS011;9239;50.932;3.142;2023-05-10T08:27:24;19.27;;;17.23;;
18228;SDS011;9239;50.932;3.142;2023-05-10T08:29:51;18.20;;;16.50;;
18228;SDS011;9239;50.932;3.142;2023-05-10T08:32:18;18.58;;;16.45;;
18228;SDS011;9239;50.932;3.142;2023-05-10T08:34:46;17.63;;;15.93;;
18228;SDS011;9239;50.932;3.142;2023-05-10T08:37:13;18.63;;;16.75;;
18228;SDS011;9239;50.932;3.142;2023-05-10T08:39:40;19.58;;;17.58;;
18228;SDS011;9239;50.932;3.142;2023-05-10T08:42:07;18.00;;;16.20;;
18228;SDS011;9239;50.932;3.142;2023-05-10T08:44:35;17.85;;;16.05;;
18228;SDS011;9239;50.932;3.142;2023-05-10T08:47:04;20.15;;;17.42;;
18228;SDS011;9239;50.932;3.142;2023-05-10T08:49:32;21.33;;;19.08;;
18228;SDS011;9239;50.932;3.142;2023-05-10T08:52:01;22.10;;;19.60;;
18228;SDS011;9239;50.932;3.142;2023-05-10T08:54:31;21.75;;;19.48;;
18228;SDS011;9239;50.932;3.142;2023-05-10T08:56:59;19.80;;;17.92;;
18228;SDS011;9239;50.932;3.142;2023-05-10T08:59:26;21.05;;;19.05;;
18228;SDS011;9239;50.932;3.142;2023-05-10T09:01:53;22.45;;;20.20;;
18228;SDS011;9239;50.932;3.142;2023-05-10T09:04:23;21.63;;;19.42;;
18228;SDS011;9239;50.932;3.142;2023-05-10T09:06:50;20.80;;;18.80;;
18228;SDS011;9239;50.932;3.142;2023-05-10T09:09:19;23.13;;;19.40;;
18228;SDS011;9239;50.932;3.142;2023-05-10T09:11:46;22.90;;;20.40;;
18228;SDS011;9239;50.932;3.142;2023-05-10T09:14:14;21.48;;;19.38;;
18228;SDS011;9239;50.932;3.142;2023-05-10T09:16:42;23.00;;;20.60;;
18228;SDS011;9239;50.932;3.142;2023-05-10T09:19:09;22.95;;;20.58;;
18228;SDS011;9239;50.932;3.142;2023-05-10T09:21:36;25.40;;;22.83;;
18228;SDS011;9239;50.932;3.142;2023-05-10T09:24:04;25.45;;;21.92;;
18228;SDS011;9239;50.932;3.142;2023-05-10T09:26:33;26.80;;;23.52;;
18228;SDS011;9239;50.932;3.142;2023-05-10T09:29:01;27.95;;;22.67;;
18228;SDS011;9239;50.932;3.142;2023-05-10T09:31:46;23.63;;;19.90;;
18228;SDS011;9239;50.932;3.142;2023-05-10T09:34:16;22.95;;;20.10;;
18228;SDS011;9239;50.932;3.142;2023-05-10T09:36:53;23.48;;;17.98;;
18228;SDS011;9239;50.932;3.142;2023-05-10T09:39:29;25.23;;;18.08;;
18228;SDS011;9239;50.932;3.142;2023-05-10T09:41:59;24.10;;;18.00;;
18228;SDS011;9239;50.932;3.142;2023-05-10T09:44:28;24.92;;;18.17;;
18228;SDS011;9239;50.932;3.142;2023-05-10T09:46:55;20.95;;;18.17;;
18228;SDS011;9239;50.932;3.142;2023-05-10T09:49:23;26.02;;;17.98;;
18228;SDS011;9239;50.932;3.142;2023-05-10T09:52:00;20.52;;;16.75;;
18228;SDS011;9239;50.932;3.142;2023-05-10T09:54:28;19.50;;;15.35;;
18228;SDS011;9239;50.932;3.142;2023-05-10T09:56:55;19.83;;;14.88;;
18228;SDS011;9239;50.932;3.142;2023-05-10T09:59:25;19.20;;;16.00;;
18228;SDS011;9239;50.932;3.142;2023-05-10T10:01:54;17.45;;;15.02;;
18228;SDS011;9239;50.932;3.142;2023-05-10T10:04:22;17.13;;;14.77;;
18228;SDS011;9239;50.932;3.142;2023-05-10T10:06:58;15.93;;;13.88;;
18228;SDS011;9239;50.932;3.142;2023-05-10T10:09:25;17.30;;;13.40;;
18228;SDS011;9239;50.932;3.142;2023-05-10T10:11:53;15.95;;;13.52;;
18228;SDS011;9239;50.932;3.142;2023-05-10T10:14:21;13.88;;;12.30;;
18228;SDS011;9239;50.932;3.142;2023-05-10T10:16:50;13.30;;;11.90;;
18228;SDS011;9239;50.932;3.142;2023-05-10T10:19:17;14.35;;;12.00;;
18228;SDS011;9239;50.932;3.142;2023-05-10T10:21:45;17.05;;;13.15;;
18228;SDS011;9239;50.932;3.142;2023-05-10T10:24:12;13.43;;;11.95;;
18228;SDS011;9239;50.932;3.142;2023-05-10T10:26:39;12.98;;;10.60;;
18228;SDS011;9239;50.932;3.142;2023-05-10T10:29:10;15.15;;;11.20;;
18228;SDS011;9239;50.932;3.142;2023-05-10T10:31:45;15.32;;;12.32;;
18228;SDS011;9239;50.932;3.142;2023-05-10T10:34:21;14.07;;;11.90;;
18228;SDS011;9239;50.932;3.142;2023-05-10T10:36:53;16.77;;;12.50;;
18228;SDS011;9239;50.932;3.142;2023-05-10T10:39:21;16.45;;;10.68;;
18228;SDS011;9239;50.932;3.142;2023-05-10T10:41:50;10.60;;;9.52;;
18228;SDS011;9239;50.932;3.142;2023-05-10T10:44:24;12.13;;;10.52;;
18228;SDS011;9239;50.932;3.142;2023-05-10T10:46:59;12.48;;;8.68;;
18228;SDS011;9239;50.932;3.142;2023-05-10T10:49:37;11.68;;;9.35;;
18228;SDS011;9239;50.932;3.142;2023-05-10T10:55:01;9.30;;;7.65;;
18228;SDS011;9239;50.932;3.142;2023-05-10T10:57:31;8.65;;;7.80;;
18228;SDS011;9239;50.932;3.142;2023-05-10T11:00:21;10.48;;;8.65;;
18228;SDS011;9239;50.932;3.142;2023-05-10T11:02:53;10.43;;;8.00;;
18228;SDS011;9239;50.932;3.142;2023-05-10T11:05:33;10.18;;;8.10;;
18228;SDS011;9239;50.932;3.142;2023-05-10T11:08:11;12.15;;;7.45;;
18228;SDS011;9239;50.932;3.142;2023-05-10T11:10:48;10.32;;;8.00;;
18228;SDS011;9239;50.932;3.142;2023-05-10T11:13:26;11.77;;;7.78;;
18228;SDS011;9239;50.932;3.142;2023-05-10T11:15:54;8.85;;;8.00;;
18228;SDS011;9239;50.932;3.142;2023-05-10T11:18:24;14.35;;;9.85;;
18228;SDS011;9239;50.932;3.142;2023-05-10T11:20:55;15.43;;;9.00;;
18228;SDS011;9239;50.932;3.142;2023-05-10T11:23:23;13.50;;;9.07;;
18228;SDS011;9239;50.932;3.142;2023-05-10T11:25:55;10.43;;;8.30;;
18228;SDS011;9239;50.932;3.142;2023-05-10T11:28:22;10.05;;;8.57;;
18228;SDS011;9239;50.932;3.142;2023-05-10T11:30:50;11.77;;;9.13;;
18228;SDS011;9239;50.932;3.142;2023-05-10T11:33:17;12.38;;;8.57;;
18228;SDS011;9239;50.932;3.142;2023-05-10T11:35:46;12.25;;;7.65;;
18228;SDS011;9239;50.932;3.142;2023-05-10T11:38:14;11.93;;;8.95;;
18228;SDS011;9239;50.932;3.142;2023-05-10T11:40:41;13.57;;;8.63;;
18228;SDS011;9239;50.932;3.142;2023-05-10T11:43:09;9.73;;;7.53;;
18228;SDS011;9239;50.932;3.142;2023-05-10T11:45:37;7.80;;;5.60;;
18228;SDS011;9239;50.932;3.142;2023-05-10T11:48:06;9.48;;;5.88;;
18228;SDS011;9239;50.932;3.142;2023-05-10T11:50:33;7.82;;;5.60;;
18228;SDS011;9239;50.932;3.142;2023-05-10T11:53:00;9.13;;;6.05;;
18228;SDS011;9239;50.932;3.142;2023-05-10T11:55:28;10.25;;;5.68;;
18228;SDS011;9239;50.932;3.142;2023-05-10T11:58:01;8.48;;;6.35;;
18228;SDS011;9239;50.932;3.142;2023-05-10T12:00:28;7.22;;;5.97;;
18228;SDS011;9239;50.932;3.142;2023-05-10T12:02:56;8.05;;;5.90;;
18228;SDS011;9239;50.932;3.142;2023-05-10T12:05:23;11.25;;;4.93;;
18228;SDS011;9239;50.932;3.142;2023-05-10T12:07:51;6.40;;;4.65;;
18228;SDS011;9239;50.932;3.142;2023-05-10T12:10:18;9.60;;;5.05;;
18228;SDS011;9239;50.932;3.142;2023-05-10T12:12:53;8.27;;;5.15;;
18228;SDS011;9239;50.932;3.142;2023-05-10T12:15:21;7.85;;;4.38;;
18228;SDS011;9239;50.932;3.142;2023-05-10T12:17:48;9.20;;;4.35;;
18228;SDS011;9239;50.932;3.142;2023-05-10T12:20:16;9.05;;;4.35;;
18228;SDS011;9239;50.932;3.142;2023-05-10T12:22:47;8.38;;;4.53;;
18228;SDS011;9239;50.932;3.142;2023-05-10T12:25:16;8.32;;;3.75;;
18228;SDS011;9239;50.932;3.142;2023-05-10T12:27:47;7.35;;;3.67;;
18228;SDS011;9239;50.932;3.142;2023-05-10T12:30:20;6.75;;;3.60;;
18228;SDS011;9239;50.932;3.142;2023-05-10T12:32:47;7.28;;;3.67;;
18228;SDS011;9239;50.932;3.142;2023-05-10T12:35:15;7.50;;;3.20;;
18228;SDS011;9239;50.932;3.142;2023-05-10T12:37:42;7.88;;;2.70;;
18228;SDS011;9239;50.932;3.142;2023-05-10T12:40:10;6.20;;;3.22;;
18228;SDS011;9239;50.932;3.142;2023-05-10T12:42:38;5.43;;;2.53;;
18228;SDS011;9239;50.932;3.142;2023-05-10T12:45:05;4.90;;;2.33;;
18228;SDS011;9239;50.932;3.142;2023-05-10T12:47:35;5.65;;;2.67;;
18228;SDS011;9239;50.932;3.142;2023-05-10T12:50:02;4.05;;;2.63;;
18228;SDS011;9239;50.932;3.142;2023-05-10T12:52:30;5.70;;;2.40;;
18228;SDS011;9239;50.932;3.142;2023-05-10T12:54:58;6.85;;;2.97;;
18228;SDS011;9239;50.932;3.142;2023-05-10T12:57:26;5.38;;;2.92;;
18228;SDS011;9239;50.932;3.142;2023-05-10T12:59:53;6.72;;;3.55;;
18228;SDS011;9239;50.932;3.142;2023-05-10T13:02:20;5.55;;;3.00;;
18228;SDS011;9239;50.932;3.142;2023-05-10T13:04:49;6.75;;;2.88;;
18228;SDS011;9239;50.932;3.142;2023-05-10T13:07:17;5.78;;;2.67;;
18228;SDS011;9239;50.932;3.142;2023-05-10T13:09:44;5.47;;;2.67;;
18228;SDS011;9239;50.932;3.142;2023-05-10T13:12:10;9.38;;;3.13;;
18228;SDS011;9239;50.932;3.142;2023-05-10T13:14:37;4.50;;;2.80;;
18228;SDS011;9239;50.932;3.142;2023-05-10T13:17:05;7.47;;;3.10;;
18228;SDS011;9239;50.932;3.142;2023-05-10T13:19:33;5.70;;;3.05;;
18228;SDS011;9239;50.932;3.142;2023-05-10T13:22:02;7.25;;;3.13;;
18228;SDS011;9239;50.932;3.142;2023-05-10T13:24:30;8.07;;;2.90;;
18228;SDS011;9239;50.932;3.142;2023-05-10T13:26:57;4.97;;;2.83;;
18228;SDS011;9239;50.932;3.142;2023-05-10T13:29:24;3.78;;;2.72;;
18228;SDS011;9239;50.932;3.142;2023-05-10T13:31:51;5.70;;;2.63;;
18228;SDS011;9239;50.932;3.142;2023-05-10T13:34:18;5.50;;;2.60;;
18228;SDS011;9239;50.932;3.142;2023-05-10T13:36:46;5.25;;;2.60;;
18228;SDS011;9239;50.932;3.142;2023-05-10T13:39:15;5.85;;;2.70;;
18228;SDS011;9239;50.932;3.142;2023-05-10T13:41:42;6.68;;;2.92;;
18228;SDS011;9239;50.932;3.142;2023-05-10T13:44:09;3.58;;;2.58;;
18228;SDS011;9239;50.932;3.142;2023-05-10T13:46:37;6.90;;;3.50;;
18228;SDS011;9239;50.932;3.142;2023-05-10T13:49:04;5.07;;;2.40;;
18228;SDS011;9239;50.932;3.142;2023-05-10T13:51:31;8.20;;;3.20;;
18228;SDS011;9239;50.932;3.142;2023-05-10T13:53:59;5.43;;;2.53;;
18228;SDS011;9239;50.932;3.142;2023-05-10T13:56:27;4.80;;;2.35;;
18228;SDS011;9239;50.932;3.142;2023-05-10T13:58:55;4.68;;;2.58;;
18228;SDS011;9239;50.932;3.142;2023-05-10T14:01:23;5.53;;;2.85;;
18228;SDS011;9239;50.932;3.142;2023-05-10T14:03:50;7.70;;;3.38;;
18228;SDS011;9239;50.932;3.142;2023-05-10T14:06:17;6.25;;;2.80;;
18228;SDS011;9239;50.932;3.142;2023-05-10T14:08:44;5.10;;;2.47;;
18228;SDS011;9239;50.932;3.142;2023-05-10T14:11:11;5.15;;;2.83;;
18228;SDS011;9239;50.932;3.142;2023-05-10T14:13:39;7.30;;;3.05;;
18228;SDS011;9239;50.932;3.142;2023-05-10T14:16:06;4.35;;;2.40;;
18228;SDS011;9239;50.932;3.142;2023-05-10T14:18:33;5.50;;;2.92;;
18228;SDS011;9239;50.932;3.142;2023-05-10T14:21:01;8.10;;;3.15;;
18228;SDS011;9239;50.932;3.142;2023-05-10T14:23:29;4.07;;;2.72;;
18228;SDS011;9239;50.932;3.142;2023-05-10T14:25:56;6.50;;;3.28;;
18228;SDS011;9239;50.932;3.142;2023-05-10T14:28:23;6.65;;;2.83;;
18228;SDS011;9239;50.932;3.142;2023-05-10T14:30:51;8.07;;;3.40;;
18228;SDS011;9239;50.932;3.142;2023-05-10T14:33:18;4.65;;;3.05;;
18228;SDS011;9239;50.932;3.142;2023-05-10T14:35:45;5.88;;;3.08;;
18228;SDS011;9239;50.932;3.142;2023-05-10T14:38:13;4.88;;;3.00;;
18228;SDS011;9239;50.932;3.142;2023-05-10T14:40:40;5.78;;;3.20;;
18228;SDS011;9239;50.932;3.142;2023-05-10T14:43:07;4.93;;;2.97;;
18228;SDS011;9239;50.932;3.142;2023-05-10T14:45:35;5.68;;;3.28;;
18228;SDS011;9239;50.932;3.142;2023-05-10T14:48:03;5.68;;;2.95;;
18228;SDS011;9239;50.932;3.142;2023-05-10T14:50:30;4.38;;;2.72;;
18228;SDS011;9239;50.932;3.142;2023-05-10T14:52:57;7.43;;;2.78;;
18228;SDS011;9239;50.932;3.142;2023-05-10T14:55:25;5.15;;;2.70;;
18228;SDS011;9239;50.932;3.142;2023-05-10T14:57:52;5.07;;;2.60;;